sensor_id;sensor_type;location;lat;lon;timestamp;P1;durP1;ratioP1;P2;durP2;ratioP2
5553;SDS011;2800;49.528;8.666;2022-12-01T00:02:04;21.00;;;16.40;;
5553;SDS011;2800;49.528;8.666;2022-12-01T00:04:30;21.70;;;16.83;;
5553;SDS011;2800;49.528;8.666;2022-12-01T00:06:55;23.50;;;18.23;;
5553;SDS011;2800;49.528;8.666;2022-12-01T00:09:21;22.27;;;18.33;;
5553;SDS011;2800;49.528;8.666;2022-12-01T00:12:05;25.40;;;18.43;;
5553;SDS011;2800;49.528;8.666;2022-12-01T00:14:30;23.83;;;18.87;;
5553;SDS011;2800;49.528;8.666;2022-12-01T00:16:56;22.37;;;17.80;;
5553;SDS011;2800;49.528;8.666;2022-12-01T00:19:25;21.33;;;18.00;;
5553;SDS011;2800;49.528;8.666;2022-12-01T00:21:51;23.80;;;18.33;;
5553;SDS011;2800;49.528;8.666;2022-12-01T00:24:16;24.67;;;18.80;;
5553;SDS011;2800;49.528;8.666;2022-12-01T00:26:42;26.80;;;18.00;;
5553;SDS011;2800;49.528;8.666;2022-12-01T00:29:07;31.17;;;24.67;;
5553;SDS011;2800;49.528;8.666;2022-12-01T00:31:33;27.93;;;21.57;;
5553;SDS011;2800;49.528;8.666;2022-12-01T00:33:59;27.10;;;21.13;;
5553;SDS011;2800;49.528;8.666;2022-12-01T00:36:25;29.63;;;20.30;;
5553;SDS011;2800;49.528;8.666;2022-12-01T00:38:51;23.40;;;18.70;;
5553;SDS011;2800;49.528;8.666;2022-12-01T00:41:18;28.00;;;21.67;;
5553;SDS011;2800;49.528;8.666;2022-12-01T00:43:44;32.60;;;25.10;;
5553;SDS011;2800;49.528;8.666;2022-12-01T00:46:10;29.50;;;23.27;;
5553;SDS011;2800;49.528;8.666;2022-12-01T00:48:36;27.20;;;19.70;;
5553;SDS011;2800;49.528;8.666;2022-12-01T00:51:01;25.90;;;19.90;;
5553;SDS011;2800;49.528;8.666;2022-12-01T00:53:27;27.83;;;21.07;;
5553;SDS011;2800;49.528;8.666;2022-12-01T00:55:53;28.40;;;20.83;;
5553;SDS011;2800;49.528;8.666;2022-12-01T00:58:19;24.00;;;18.87;;
5553;SDS011;2800;49.528;8.666;2022-12-01T01:00:45;24.80;;;19.87;;
5553;SDS011;2800;49.528;8.666;2022-12-01T01:03:10;27.27;;;20.93;;
5553;SDS011;2800;49.528;8.666;2022-12-01T01:05:40;29.50;;;22.43;;
5553;SDS011;2800;49.528;8.666;2022-12-01T01:08:07;31.90;;;23.77;;
5553;SDS011;2800;49.528;8.666;2022-12-01T01:10:43;25.03;;;19.50;;
5553;SDS011;2800;49.528;8.666;2022-12-01T01:13:11;27.53;;;21.43;;
5553;SDS011;2800;49.528;8.666;2022-12-01T01:15:37;25.70;;;19.57;;
5553;SDS011;2800;49.528;8.666;2022-12-01T01:18:03;27.53;;;22.17;;
5553;SDS011;2800;49.528;8.666;2022-12-01T01:20:30;28.40;;;22.13;;
5553;SDS011;2800;49.528;8.666;2022-12-01T01:22:55;27.87;;;19.57;;
5553;SDS011;2800;49.528;8.666;2022-12-01T01:25:21;27.90;;;21.37;;
5553;SDS011;2800;49.528;8.666;2022-12-01T01:27:47;25.83;;;21.80;;
5553;SDS011;2800;49.528;8.666;2022-12-01T01:30:13;29.93;;;22.20;;
5553;SDS011;2800;49.528;8.666;2022-12-01T01:32:39;27.47;;;21.73;;
5553;SDS011;2800;49.528;8.666;2022-12-01T01:35:04;27.50;;;22.50;;
5553;SDS011;2800;49.528;8.666;2022-12-01T01:37:30;29.83;;;22.03;;
5553;SDS011;2800;49.528;8.666;2022-12-01T01:39:56;26.43;;;20.07;;
5553;SDS011;2800;49.528;8.666;2022-12-01T01:42:21;27.17;;;21.63;;
5553;SDS011;2800;49.528;8.666;2022-12-01T01:44:55;29.50;;;22.37;;
5553;SDS011;2800;49.528;8.666;2022-12-01T01:49:56;24.40;;;20.70;;
5553;SDS011;2800;49.528;8.666;2022-12-01T01:52:29;26.73;;;21.90;;
5553;SDS011;2800;49.528;8.666;2022-12-01T01:54:54;29.23;;;22.90;;
5553;SDS011;2800;49.528;8.666;2022-12-01T01:57:22;28.10;;;21.43;;
5553;SDS011;2800;49.528;8.666;2022-12-01T01:59:54;26.80;;;21.40;;
5553;SDS011;2800;49.528;8.666;2022-12-01T02:02:32;25.60;;;21.37;;
5553;SDS011;2800;49.528;8.666;2022-12-01T02:05:04;28.17;;;22.80;;
5553;SDS011;2800;49.528;8.666;2022-12-01T02:07:38;28.63;;;21.10;;
5553;SDS011;2800;49.528;8.666;2022-12-01T02:10:05;25.23;;;20.97;;
5553;SDS011;2800;49.528;8.666;2022-12-01T02:17:53;25.67;;;19.87;;
5553;SDS011;2800;49.528;8.666;2022-12-01T02:30:39;26.87;;;21.00;;
5553;SDS011;2800;49.528;8.666;2022-12-01T02:33:26;25.60;;;21.27;;
5553;SDS011;2800;49.528;8.666;2022-12-01T02:36:00;28.10;;;22.07;;
5553;SDS011;2800;49.528;8.666;2022-12-01T02:38:43;28.57;;;21.80;;
5553;SDS011;2800;49.528;8.666;2022-12-01T02:43:58;25.73;;;20.60;;
5553;SDS011;2800;49.528;8.666;2022-12-01T02:46:57;25.50;;;19.17;;
5553;SDS011;2800;49.528;8.666;2022-12-01T02:49:27;27.50;;;19.70;;
5553;SDS011;2800;49.528;8.666;2022-12-01T02:51:57;25.77;;;19.53;;
5553;SDS011;2800;49.528;8.666;2022-12-01T02:54:24;23.80;;;19.23;;
5553;SDS011;2800;49.528;8.666;2022-12-01T02:56:53;24.27;;;18.93;;
5553;SDS011;2800;49.528;8.666;2022-12-01T02:59:19;26.07;;;21.30;;
5553;SDS011;2800;49.528;8.666;2022-12-01T03:12:30;25.03;;;19.80;;
5553;SDS011;2800;49.528;8.666;2022-12-01T03:17:34;24.80;;;20.03;;
5553;SDS011;2800;49.528;8.666;2022-12-01T03:20:26;29.37;;;21.73;;
5553;SDS011;2800;49.528;8.666;2022-12-01T03:23:04;24.43;;;17.50;;
5553;SDS011;2800;49.528;8.666;2022-12-01T03:25:37;23.53;;;18.90;;
5553;SDS011;2800;49.528;8.666;2022-12-01T03:28:05;24.57;;;19.10;;
5553;SDS011;2800;49.528;8.666;2022-12-01T03:30:33;26.20;;;20.50;;
5553;SDS011;2800;49.528;8.666;2022-12-01T03:33:02;24.73;;;19.27;;
5553;SDS011;2800;49.528;8.666;2022-12-01T03:35:44;24.97;;;19.93;;
5553;SDS011;2800;49.528;8.666;2022-12-01T03:38:23;27.53;;;17.93;;
5553;SDS011;2800;49.528;8.666;2022-12-01T03:40:50;24.20;;;17.53;;
5553;SDS011;2800;49.528;8.666;2022-12-01T03:43:23;24.73;;;19.50;;
5553;SDS011;2800;49.528;8.666;2022-12-01T03:48:38;23.70;;;17.80;;
5553;SDS011;2800;49.528;8.666;2022-12-01T03:51:21;23.90;;;17.60;;
5553;SDS011;2800;49.528;8.666;2022-12-01T03:53:57;22.40;;;16.73;;
5553;SDS011;2800;49.528;8.666;2022-12-01T03:56:35;26.67;;;18.73;;
5553;SDS011;2800;49.528;8.666;2022-12-01T03:59:07;25.47;;;18.20;;
5553;SDS011;2800;49.528;8.666;2022-12-01T04:01:34;26.33;;;20.33;;
5553;SDS011;2800;49.528;8.666;2022-12-01T04:04:07;27.73;;;20.23;;
5553;SDS011;2800;49.528;8.666;2022-12-01T04:06:35;24.20;;;19.30;;
5553;SDS011;2800;49.528;8.666;2022-12-01T04:09:01;27.60;;;20.00;;
5553;SDS011;2800;49.528;8.666;2022-12-01T04:11:27;25.93;;;20.43;;
5553;SDS011;2800;49.528;8.666;2022-12-01T04:14:12;25.90;;;18.90;;
5553;SDS011;2800;49.528;8.666;2022-12-01T04:16:37;25.37;;;20.70;;
5553;SDS011;2800;49.528;8.666;2022-12-01T04:19:03;25.77;;;20.80;;
5553;SDS011;2800;49.528;8.666;2022-12-01T04:21:28;24.30;;;18.93;;
5553;SDS011;2800;49.528;8.666;2022-12-01T04:23:54;27.03;;;19.03;;
5553;SDS011;2800;49.528;8.666;2022-12-01T04:26:29;25.23;;;17.93;;
5553;SDS011;2800;49.528;8.666;2022-12-01T04:28:59;24.27;;;18.30;;
5553;SDS011;2800;49.528;8.666;2022-12-01T04:31:27;25.23;;;17.63;;
5553;SDS011;2800;49.528;8.666;2022-12-01T04:33:53;21.87;;;16.80;;
5553;SDS011;2800;49.528;8.666;2022-12-01T04:36:19;24.43;;;16.53;;
5553;SDS011;2800;49.528;8.666;2022-12-01T04:38:45;24.30;;;17.60;;
5553;SDS011;2800;49.528;8.666;2022-12-01T04:41:11;22.87;;;16.80;;
5553;SDS011;2800;49.528;8.666;2022-12-01T04:43:38;23.03;;;16.50;;
5553;SDS011;2800;49.528;8.666;2022-12-01T04:46:04;24.97;;;16.30;;
5553;SDS011;2800;49.528;8.666;2022-12-01T04:48:30;23.30;;;17.03;;
5553;SDS011;2800;49.528;8.666;2022-12-01T04:50:56;27.50;;;17.47;;
5553;SDS011;2800;49.528;8.666;2022-12-01T04:53:22;28.77;;;16.20;;
5553;SDS011;2800;49.528;8.666;2022-12-01T04:55:47;24.13;;;17.73;;
5553;SDS011;2800;49.528;8.666;2022-12-01T04:58:13;23.93;;;18.00;;
5553;SDS011;2800;49.528;8.666;2022-12-01T05:00:39;23.97;;;16.30;;
5553;SDS011;2800;49.528;8.666;2022-12-01T05:03:04;24.20;;;16.60;;
5553;SDS011;2800;49.528;8.666;2022-12-01T05:05:30;24.73;;;16.77;;
5553;SDS011;2800;49.528;8.666;2022-12-01T05:07:56;25.70;;;16.63;;
5553;SDS011;2800;49.528;8.666;2022-12-01T05:10:22;23.50;;;17.13;;
5553;SDS011;2800;49.528;8.666;2022-12-01T05:12:48;23.97;;;17.47;;
5553;SDS011;2800;49.528;8.666;2022-12-01T05:15:14;26.67;;;18.60;;
5553;SDS011;2800;49.528;8.666;2022-12-01T05:17:39;23.27;;;17.30;;
5553;SDS011;2800;49.528;8.666;2022-12-01T05:20:05;22.63;;;17.53;;
5553;SDS011;2800;49.528;8.666;2022-12-01T05:22:50;25.37;;;18.10;;
5553;SDS011;2800;49.528;8.666;2022-12-01T05:25:16;25.60;;;17.10;;
5553;SDS011;2800;49.528;8.666;2022-12-01T05:27:42;27.17;;;17.80;;
5553;SDS011;2800;49.528;8.666;2022-12-01T05:30:08;27.40;;;19.33;;
5553;SDS011;2800;49.528;8.666;2022-12-01T05:32:34;24.63;;;18.63;;
5553;SDS011;2800;49.528;8.666;2022-12-01T05:35:00;23.97;;;18.30;;
5553;SDS011;2800;49.528;8.666;2022-12-01T05:37:25;27.83;;;20.40;;
5553;SDS011;2800;49.528;8.666;2022-12-01T05:39:57;26.23;;;18.90;;
5553;SDS011;2800;49.528;8.666;2022-12-01T05:42:22;29.77;;;20.80;;
5553;SDS011;2800;49.528;8.666;2022-12-01T05:44:48;29.33;;;19.67;;
5553;SDS011;2800;49.528;8.666;2022-12-01T05:47:13;26.83;;;19.60;;
5553;SDS011;2800;49.528;8.666;2022-12-01T05:49:39;26.47;;;18.60;;
5553;SDS011;2800;49.528;8.666;2022-12-01T05:52:04;26.30;;;19.20;;
5553;SDS011;2800;49.528;8.666;2022-12-01T05:54:30;33.00;;;25.13;;
5553;SDS011;2800;49.528;8.666;2022-12-01T05:56:55;31.13;;;23.10;;
5553;SDS011;2800;49.528;8.666;2022-12-01T05:59:21;26.43;;;19.77;;
5553;SDS011;2800;49.528;8.666;2022-12-01T06:01:46;27.57;;;22.63;;
5553;SDS011;2800;49.528;8.666;2022-12-01T06:04:12;30.30;;;21.90;;
5553;SDS011;2800;49.528;8.666;2022-12-01T06:06:37;29.53;;;20.33;;
5553;SDS011;2800;49.528;8.666;2022-12-01T06:09:03;32.73;;;24.77;;
5553;SDS011;2800;49.528;8.666;2022-12-01T06:11:28;29.40;;;21.17;;
5553;SDS011;2800;49.528;8.666;2022-12-01T06:13:54;29.60;;;23.47;;
5553;SDS011;2800;49.528;8.666;2022-12-01T06:16:19;32.27;;;21.53;;
5553;SDS011;2800;49.528;8.666;2022-12-01T06:18:45;26.60;;;20.77;;
5553;SDS011;2800;49.528;8.666;2022-12-01T06:21:10;24.50;;;19.03;;
5553;SDS011;2800;49.528;8.666;2022-12-01T06:23:36;23.07;;;16.70;;
5553;SDS011;2800;49.528;8.666;2022-12-01T06:26:02;27.83;;;20.43;;
5553;SDS011;2800;49.528;8.666;2022-12-01T06:28:28;26.40;;;20.33;;
5553;SDS011;2800;49.528;8.666;2022-12-01T06:30:54;27.13;;;20.33;;
5553;SDS011;2800;49.528;8.666;2022-12-01T06:33:19;25.53;;;18.47;;
5553;SDS011;2800;49.528;8.666;2022-12-01T06:35:45;25.20;;;19.33;;
5553;SDS011;2800;49.528;8.666;2022-12-01T06:38:10;24.77;;;17.73;;
5553;SDS011;2800;49.528;8.666;2022-12-01T06:40:36;28.33;;;17.27;;
5553;SDS011;2800;49.528;8.666;2022-12-01T06:43:01;26.77;;;20.23;;
5553;SDS011;2800;49.528;8.666;2022-12-01T06:45:28;23.80;;;17.27;;
5553;SDS011;2800;49.528;8.666;2022-12-01T06:47:54;24.20;;;17.90;;
5553;SDS011;2800;49.528;8.666;2022-12-01T06:50:20;24.40;;;17.97;;
5553;SDS011;2800;49.528;8.666;2022-12-01T06:52:46;24.47;;;19.57;;
5553;SDS011;2800;49.528;8.666;2022-12-01T06:55:12;27.70;;;20.90;;
5553;SDS011;2800;49.528;8.666;2022-12-01T06:57:38;25.63;;;20.00;;
5553;SDS011;2800;49.528;8.666;2022-12-01T07:00:04;29.27;;;22.23;;
5553;SDS011;2800;49.528;8.666;2022-12-01T07:02:30;31.70;;;21.73;;
5553;SDS011;2800;49.528;8.666;2022-12-01T07:04:55;26.47;;;19.77;;
5553;SDS011;2800;49.528;8.666;2022-12-01T07:07:21;23.73;;;19.03;;
5553;SDS011;2800;49.528;8.666;2022-12-01T07:09:47;28.33;;;22.40;;
5553;SDS011;2800;49.528;8.666;2022-12-01T07:12:12;24.33;;;18.77;;
5553;SDS011;2800;49.528;8.666;2022-12-01T07:14:38;23.70;;;17.43;;
5553;SDS011;2800;49.528;8.666;2022-12-01T07:17:06;26.93;;;19.20;;
5553;SDS011;2800;49.528;8.666;2022-12-01T07:19:33;24.27;;;20.20;;
5553;SDS011;2800;49.528;8.666;2022-12-01T07:21:58;25.83;;;20.10;;
5553;SDS011;2800;49.528;8.666;2022-12-01T07:24:24;23.70;;;18.40;;
5553;SDS011;2800;49.528;8.666;2022-12-01T07:26:49;25.70;;;19.03;;
5553;SDS011;2800;49.528;8.666;2022-12-01T07:29:15;24.07;;;17.43;;
5553;SDS011;2800;49.528;8.666;2022-12-01T07:31:41;24.50;;;18.83;;
5553;SDS011;2800;49.528;8.666;2022-12-01T07:34:09;28.77;;;17.93;;
5553;SDS011;2800;49.528;8.666;2022-12-01T07:36:36;25.57;;;17.80;;
5553;SDS011;2800;49.528;8.666;2022-12-01T07:39:05;23.43;;;19.20;;
5553;SDS011;2800;49.528;8.666;2022-12-01T07:41:32;22.00;;;18.70;;
5553;SDS011;2800;49.528;8.666;2022-12-01T07:43:57;28.10;;;17.40;;
5553;SDS011;2800;49.528;8.666;2022-12-01T07:46:25;22.50;;;16.93;;
5553;SDS011;2800;49.528;8.666;2022-12-01T07:48:51;25.50;;;18.93;;
5553;SDS011;2800;49.528;8.666;2022-12-01T07:51:18;24.00;;;17.33;;
5553;SDS011;2800;49.528;8.666;2022-12-01T07:53:45;22.33;;;19.10;;
5553;SDS011;2800;49.528;8.666;2022-12-01T07:56:13;24.97;;;19.23;;
5553;SDS011;2800;49.528;8.666;2022-12-01T07:58:39;24.00;;;18.77;;
5553;SDS011;2800;49.528;8.666;2022-12-01T08:01:09;24.83;;;20.23;;
5553;SDS011;2800;49.528;8.666;2022-12-01T08:03:53;26.07;;;22.67;;
5553;SDS011;2800;49.528;8.666;2022-12-01T08:06:21;30.27;;;25.63;;
5553;SDS011;2800;49.528;8.666;2022-12-01T08:08:47;36.70;;;27.00;;
5553;SDS011;2800;49.528;8.666;2022-12-01T08:11:17;26.33;;;21.17;;
5553;SDS011;2800;49.528;8.666;2022-12-01T08:13:43;26.67;;;21.87;;
5553;SDS011;2800;49.528;8.666;2022-12-01T08:16:10;32.10;;;24.30;;
5553;SDS011;2800;49.528;8.666;2022-12-01T08:18:37;27.30;;;21.93;;
5553;SDS011;2800;49.528;8.666;2022-12-01T08:21:04;28.30;;;22.70;;
5553;SDS011;2800;49.528;8.666;2022-12-01T08:23:31;28.87;;;23.40;;
5553;SDS011;2800;49.528;8.666;2022-12-01T08:26:03;28.23;;;23.07;;
5553;SDS011;2800;49.528;8.666;2022-12-01T08:28:30;30.73;;;23.30;;
5553;SDS011;2800;49.528;8.666;2022-12-01T08:30:56;30.97;;;20.67;;
5553;SDS011;2800;49.528;8.666;2022-12-01T08:33:22;28.50;;;20.43;;
5553;SDS011;2800;49.528;8.666;2022-12-01T08:35:48;27.17;;;20.90;;
5553;SDS011;2800;49.528;8.666;2022-12-01T08:38:13;24.93;;;20.20;;
5553;SDS011;2800;49.528;8.666;2022-12-01T08:40:39;27.27;;;18.30;;
5553;SDS011;2800;49.528;8.666;2022-12-01T08:43:05;25.17;;;19.10;;
5553;SDS011;2800;49.528;8.666;2022-12-01T08:45:31;24.87;;;19.07;;
5553;SDS011;2800;49.528;8.666;2022-12-01T08:47:57;22.17;;;18.27;;
5553;SDS011;2800;49.528;8.666;2022-12-01T08:50:26;24.73;;;18.80;;
5553;SDS011;2800;49.528;8.666;2022-12-01T08:52:52;25.33;;;18.87;;
5553;SDS011;2800;49.528;8.666;2022-12-01T08:55:18;22.77;;;18.90;;
5553;SDS011;2800;49.528;8.666;2022-12-01T08:57:45;22.03;;;17.73;;
5553;SDS011;2800;49.528;8.666;2022-12-01T09:00:11;24.20;;;19.07;;
5553;SDS011;2800;49.528;8.666;2022-12-01T09:02:36;24.80;;;19.13;;
5553;SDS011;2800;49.528;8.666;2022-12-01T09:05:02;26.43;;;18.20;;
5553;SDS011;2800;49.528;8.666;2022-12-01T09:07:29;22.80;;;17.67;;
5553;SDS011;2800;49.528;8.666;2022-12-01T09:09:54;22.13;;;18.93;;
5553;SDS011;2800;49.528;8.666;2022-12-01T09:12:20;23.20;;;18.77;;
5553;SDS011;2800;49.528;8.666;2022-12-01T09:14:46;24.40;;;18.90;;
5553;SDS011;2800;49.528;8.666;2022-12-01T09:17:13;25.87;;;20.07;;
5553;SDS011;2800;49.528;8.666;2022-12-01T09:19:40;25.57;;;19.27;;
5553;SDS011;2800;49.528;8.666;2022-12-01T09:22:06;27.73;;;20.70;;
5553;SDS011;2800;49.528;8.666;2022-12-01T09:24:32;24.10;;;20.10;;
5553;SDS011;2800;49.528;8.666;2022-12-01T09:26:58;25.07;;;19.00;;
5553;SDS011;2800;49.528;8.666;2022-12-01T09:29:23;26.60;;;21.10;;
5553;SDS011;2800;49.528;8.666;2022-12-01T09:31:49;25.57;;;20.30;;
5553;SDS011;2800;49.528;8.666;2022-12-01T09:34:18;29.13;;;20.60;;
5553;SDS011;2800;49.528;8.666;2022-12-01T09:36:45;27.47;;;20.27;;
5553;SDS011;2800;49.528;8.666;2022-12-01T09:39:13;33.43;;;22.30;;
5553;SDS011;2800;49.528;8.666;2022-12-01T09:41:48;31.73;;;21.90;;
5553;SDS011;2800;49.528;8.666;2022-12-01T09:44:31;30.53;;;21.00;;
5553;SDS011;2800;49.528;8.666;2022-12-01T09:47:10;27.80;;;20.93;;
5553;SDS011;2800;49.528;8.666;2022-12-01T09:49:56;27.23;;;20.80;;
5553;SDS011;2800;49.528;8.666;2022-12-01T09:52:40;26.17;;;18.33;;
5553;SDS011;2800;49.528;8.666;2022-12-01T09:55:14;30.50;;;20.33;;
5553;SDS011;2800;49.528;8.666;2022-12-01T09:57:41;30.97;;;22.83;;
5553;SDS011;2800;49.528;8.666;2022-12-01T10:00:29;29.90;;;20.40;;
5553;SDS011;2800;49.528;8.666;2022-12-01T10:03:08;27.63;;;20.10;;
5553;SDS011;2800;49.528;8.666;2022-12-01T10:05:56;29.10;;;20.57;;
5553;SDS011;2800;49.528;8.666;2022-12-01T10:08:36;29.23;;;21.13;;
5553;SDS011;2800;49.528;8.666;2022-12-01T10:11:17;28.57;;;20.23;;
5553;SDS011;2800;49.528;8.666;2022-12-01T10:13:53;27.70;;;21.30;;
5553;SDS011;2800;49.528;8.666;2022-12-01T10:16:21;27.87;;;20.80;;
5553;SDS011;2800;49.528;8.666;2022-12-01T10:19:10;23.87;;;20.33;;
5553;SDS011;2800;49.528;8.666;2022-12-01T10:24:31;27.07;;;20.43;;
5553;SDS011;2800;49.528;8.666;2022-12-01T10:27:18;27.50;;;20.83;;
5553;SDS011;2800;49.528;8.666;2022-12-01T10:29:48;28.77;;;20.00;;
5553;SDS011;2800;49.528;8.666;2022-12-01T10:32:26;24.17;;;19.00;;
5553;SDS011;2800;49.528;8.666;2022-12-01T10:35:00;27.37;;;21.50;;
5553;SDS011;2800;49.528;8.666;2022-12-01T10:37:27;25.87;;;21.33;;
5553;SDS011;2800;49.528;8.666;2022-12-01T10:39:54;24.90;;;19.90;;
5553;SDS011;2800;49.528;8.666;2022-12-01T10:44:50;24.43;;;18.37;;
5553;SDS011;2800;49.528;8.666;2022-12-01T10:47:22;24.67;;;19.60;;
5553;SDS011;2800;49.528;8.666;2022-12-01T10:49:49;23.20;;;18.93;;
5553;SDS011;2800;49.528;8.666;2022-12-01T10:52:29;24.57;;;19.43;;
5553;SDS011;2800;49.528;8.666;2022-12-01T10:54:59;25.43;;;19.60;;
5553;SDS011;2800;49.528;8.666;2022-12-01T10:57:25;23.67;;;18.93;;
5553;SDS011;2800;49.528;8.666;2022-12-01T11:00:00;26.27;;;18.03;;
5553;SDS011;2800;49.528;8.666;2022-12-01T11:02:30;21.73;;;18.17;;
5553;SDS011;2800;49.528;8.666;2022-12-01T11:07:28;23.30;;;18.23;;
5553;SDS011;2800;49.528;8.666;2022-12-01T11:12:39;23.13;;;19.10;;
5553;SDS011;2800;49.528;8.666;2022-12-01T11:15:06;25.37;;;19.57;;
5553;SDS011;2800;49.528;8.666;2022-12-01T11:17:42;23.60;;;18.80;;
5553;SDS011;2800;49.528;8.666;2022-12-01T11:23:16;22.77;;;18.90;;
5553;SDS011;2800;49.528;8.666;2022-12-01T11:28:34;23.33;;;18.33;;
5553;SDS011;2800;49.528;8.666;2022-12-01T11:31:06;23.23;;;18.40;;
5553;SDS011;2800;49.528;8.666;2022-12-01T11:33:47;25.13;;;19.30;;
5553;SDS011;2800;49.528;8.666;2022-12-01T11:36:19;26.80;;;17.87;;
5553;SDS011;2800;49.528;8.666;2022-12-01T11:38:57;24.23;;;18.20;;
5553;SDS011;2800;49.528;8.666;2022-12-01T11:41:38;22.93;;;18.23;;
5553;SDS011;2800;49.528;8.666;2022-12-01T11:44:05;21.97;;;18.13;;
5553;SDS011;2800;49.528;8.666;2022-12-01T11:46:40;24.80;;;18.90;;
5553;SDS011;2800;49.528;8.666;2022-12-01T11:49:09;29.03;;;23.10;;
5553;SDS011;2800;49.528;8.666;2022-12-01T11:51:47;22.00;;;17.60;;
5553;SDS011;2800;49.528;8.666;2022-12-01T11:56:51;22.50;;;17.90;;
5553;SDS011;2800;49.528;8.666;2022-12-01T11:59:21;23.40;;;18.23;;
5553;SDS011;2800;49.528;8.666;2022-12-01T12:09:54;23.77;;;17.57;;
5553;SDS011;2800;49.528;8.666;2022-12-01T12:12:28;22.07;;;18.10;;
5553;SDS011;2800;49.528;8.666;2022-12-01T12:20:37;26.33;;;19.37;;
5553;SDS011;2800;49.528;8.666;2022-12-01T12:24:00;25.20;;;19.60;;
5553;SDS011;2800;49.528;8.666;2022-12-01T12:28:56;21.97;;;18.03;;
5553;SDS011;2800;49.528;8.666;2022-12-01T12:42:57;24.23;;;18.60;;
5553;SDS011;2800;49.528;8.666;2022-12-01T12:51:42;31.63;;;23.30;;
5553;SDS011;2800;49.528;8.666;2022-12-01T12:56:48;29.40;;;22.30;;
5553;SDS011;2800;49.528;8.666;2022-12-01T12:59:20;26.67;;;21.20;;
5553;SDS011;2800;49.528;8.666;2022-12-01T13:02:05;29.10;;;23.70;;
5553;SDS011;2800;49.528;8.666;2022-12-01T13:10:05;28.97;;;21.53;;
5553;SDS011;2800;49.528;8.666;2022-12-01T13:12:50;31.00;;;25.07;;
5553;SDS011;2800;49.528;8.666;2022-12-01T13:15:21;27.70;;;22.60;;
5553;SDS011;2800;49.528;8.666;2022-12-01T13:17:48;26.40;;;20.93;;
5553;SDS011;2800;49.528;8.666;2022-12-01T13:20:18;29.00;;;22.27;;
5553;SDS011;2800;49.528;8.666;2022-12-01T13:22:47;24.10;;;20.00;;
5553;SDS011;2800;49.528;8.666;2022-12-01T13:25:20;23.83;;;19.37;;
5553;SDS011;2800;49.528;8.666;2022-12-01T13:27:56;24.77;;;19.80;;
5553;SDS011;2800;49.528;8.666;2022-12-01T13:30:24;26.23;;;21.37;;
5553;SDS011;2800;49.528;8.666;2022-12-01T13:33:00;23.10;;;19.37;;
5553;SDS011;2800;49.528;8.666;2022-12-01T13:35:35;23.20;;;18.30;;
5553;SDS011;2800;49.528;8.666;2022-12-01T13:38:22;24.30;;;18.80;;
5553;SDS011;2800;49.528;8.666;2022-12-01T13:41:08;22.43;;;17.10;;
5553;SDS011;2800;49.528;8.666;2022-12-01T13:43:37;25.33;;;19.27;;
5553;SDS011;2800;49.528;8.666;2022-12-01T14:00:33;22.07;;;14.80;;
5553;SDS011;2800;49.528;8.666;2022-12-01T14:03:29;21.13;;;16.10;;
5553;SDS011;2800;49.528;8.666;2022-12-01T14:06:08;20.23;;;14.57;;
5553;SDS011;2800;49.528;8.666;2022-12-01T14:08:44;22.73;;;17.03;;
5553;SDS011;2800;49.528;8.666;2022-12-01T14:11:20;20.20;;;15.67;;
5553;SDS011;2800;49.528;8.666;2022-12-01T14:14:08;23.20;;;17.20;;
5553;SDS011;2800;49.528;8.666;2022-12-01T14:16:46;20.00;;;16.80;;
5553;SDS011;2800;49.528;8.666;2022-12-01T14:24:58;30.17;;;23.37;;
5553;SDS011;2800;49.528;8.666;2022-12-01T14:27:31;21.27;;;16.50;;
5553;SDS011;2800;49.528;8.666;2022-12-01T14:30:56;22.30;;;15.20;;
5553;SDS011;2800;49.528;8.666;2022-12-01T14:38:53;24.20;;;18.70;;
5553;SDS011;2800;49.528;8.666;2022-12-01T14:43:52;42.20;;;32.00;;
5553;SDS011;2800;49.528;8.666;2022-12-01T14:49:27;31.90;;;24.40;;
5553;SDS011;2800;49.528;8.666;2022-12-01T14:52:01;29.63;;;24.73;;
5553;SDS011;2800;49.528;8.666;2022-12-01T14:54:31;24.13;;;18.30;;
5553;SDS011;2800;49.528;8.666;2022-12-01T14:57:06;22.20;;;16.93;;
5553;SDS011;2800;49.528;8.666;2022-12-01T14:59:34;26.63;;;18.00;;
5553;SDS011;2800;49.528;8.666;2022-12-01T15:02:02;21.20;;;17.70;;
5553;SDS011;2800;49.528;8.666;2022-12-01T15:04:33;25.20;;;18.10;;
5553;SDS011;2800;49.528;8.666;2022-12-01T15:07:20;27.83;;;19.63;;
5553;SDS011;2800;49.528;8.666;2022-12-01T15:09:59;44.00;;;33.50;;
5553;SDS011;2800;49.528;8.666;2022-12-01T15:12:26;22.40;;;18.13;;
5553;SDS011;2800;49.528;8.666;2022-12-01T15:14:53;22.60;;;17.80;;
5553;SDS011;2800;49.528;8.666;2022-12-01T15:17:32;25.03;;;19.30;;
5553;SDS011;2800;49.528;8.666;2022-12-01T15:20:00;22.87;;;18.00;;
5553;SDS011;2800;49.528;8.666;2022-12-01T15:22:28;24.70;;;17.00;;
5553;SDS011;2800;49.528;8.666;2022-12-01T15:25:04;26.87;;;20.13;;
5553;SDS011;2800;49.528;8.666;2022-12-01T15:27:32;25.17;;;19.77;;
5553;SDS011;2800;49.528;8.666;2022-12-01T15:29:58;26.70;;;20.17;;
5553;SDS011;2800;49.528;8.666;2022-12-01T15:32:28;25.33;;;19.30;;
5553;SDS011;2800;49.528;8.666;2022-12-01T15:34:56;25.27;;;19.47;;
5553;SDS011;2800;49.528;8.666;2022-12-01T15:37:26;21.60;;;18.13;;
5553;SDS011;2800;49.528;8.666;2022-12-01T15:42:34;25.37;;;20.07;;
5553;SDS011;2800;49.528;8.666;2022-12-01T15:52:54;24.10;;;18.37;;
5553;SDS011;2800;49.528;8.666;2022-12-01T15:55:26;26.60;;;22.10;;
5553;SDS011;2800;49.528;8.666;2022-12-01T15:57:54;25.27;;;20.97;;
5553;SDS011;2800;49.528;8.666;2022-12-01T16:00:20;26.43;;;21.70;;
5553;SDS011;2800;49.528;8.666;2022-12-01T16:03:04;26.67;;;20.93;;
5553;SDS011;2800;49.528;8.666;2022-12-01T16:05:31;23.67;;;19.20;;
5553;SDS011;2800;49.528;8.666;2022-12-01T16:08:12;26.00;;;20.47;;
5553;SDS011;2800;49.528;8.666;2022-12-01T16:10:43;28.90;;;20.43;;
5553;SDS011;2800;49.528;8.666;2022-12-01T16:21:50;43.77;;;28.07;;
5553;SDS011;2800;49.528;8.666;2022-12-01T16:24:42;41.50;;;28.80;;
5553;SDS011;2800;49.528;8.666;2022-12-01T16:29:57;36.87;;;26.13;;
5553;SDS011;2800;49.528;8.666;2022-12-01T16:35:02;25.27;;;21.20;;
5553;SDS011;2800;49.528;8.666;2022-12-01T16:37:28;30.43;;;21.23;;
5553;SDS011;2800;49.528;8.666;2022-12-01T16:39:54;28.80;;;22.70;;
5553;SDS011;2800;49.528;8.666;2022-12-01T16:42:20;25.97;;;20.70;;
5553;SDS011;2800;49.528;8.666;2022-12-01T16:44:47;29.10;;;22.13;;
5553;SDS011;2800;49.528;8.666;2022-12-01T16:47:17;29.70;;;21.97;;
5553;SDS011;2800;49.528;8.666;2022-12-01T16:49:43;27.97;;;20.33;;
5553;SDS011;2800;49.528;8.666;2022-12-01T16:52:09;27.47;;;21.10;;
5553;SDS011;2800;49.528;8.666;2022-12-01T16:54:34;29.43;;;22.13;;
5553;SDS011;2800;49.528;8.666;2022-12-01T16:57:00;31.20;;;22.50;;
5553;SDS011;2800;49.528;8.666;2022-12-01T16:59:25;29.27;;;22.73;;
5553;SDS011;2800;49.528;8.666;2022-12-01T17:01:51;27.73;;;20.47;;
5553;SDS011;2800;49.528;8.666;2022-12-01T17:04:16;28.23;;;21.73;;
5553;SDS011;2800;49.528;8.666;2022-12-01T17:06:42;27.20;;;20.67;;
5553;SDS011;2800;49.528;8.666;2022-12-01T17:09:08;27.67;;;22.03;;
5553;SDS011;2800;49.528;8.666;2022-12-01T17:11:33;27.87;;;21.07;;
5553;SDS011;2800;49.528;8.666;2022-12-01T17:13:59;30.43;;;22.20;;
5553;SDS011;2800;49.528;8.666;2022-12-01T17:16:25;29.17;;;21.80;;
5553;SDS011;2800;49.528;8.666;2022-12-01T17:18:50;42.90;;;32.93;;
5553;SDS011;2800;49.528;8.666;2022-12-01T17:21:16;60.63;;;47.17;;
5553;SDS011;2800;49.528;8.666;2022-12-01T17:23:42;53.20;;;41.07;;
5553;SDS011;2800;49.528;8.666;2022-12-01T17:26:09;44.87;;;35.57;;
5553;SDS011;2800;49.528;8.666;2022-12-01T17:28:36;35.43;;;28.03;;
5553;SDS011;2800;49.528;8.666;2022-12-01T17:31:02;37.50;;;28.97;;
5553;SDS011;2800;49.528;8.666;2022-12-01T17:33:28;36.43;;;27.17;;
5553;SDS011;2800;49.528;8.666;2022-12-01T17:35:53;35.73;;;26.47;;
5553;SDS011;2800;49.528;8.666;2022-12-01T17:38:19;34.50;;;26.07;;